sensor_id;sensor_type;location;lat;lon;timestamp;P1;durP1;ratioP1;P2;durP2;ratioP2
78774;SDS011;68119;43.398;3.676;2023-05-07T00:00:25;15.98;;;12.73;;
78774;SDS011;68119;43.398;3.676;2023-05-07T00:02:51;16.48;;;13.60;;
78774;SDS011;68119;43.398;3.676;2023-05-07T00:05:20;13.35;;;11.98;;
78774;SDS011;68119;43.398;3.676;2023-05-07T00:07:46;15.43;;;12.80;;
78774;SDS011;68119;43.398;3.676;2023-05-07T00:10:12;15.20;;;13.23;;
78774;SDS011;68119;43.398;3.676;2023-05-07T00:12:41;17.60;;;13.60;;
78774;SDS011;68119;43.398;3.676;2023-05-07T00:15:07;16.90;;;13.25;;
78774;SDS011;68119;43.398;3.676;2023-05-07T00:17:40;18.10;;;14.05;;
78774;SDS011;68119;43.398;3.676;2023-05-07T00:20:06;15.52;;;13.27;;
78774;SDS011;68119;43.398;3.676;2023-05-07T00:22:33;14.32;;;12.82;;
78774;SDS011;68119;43.398;3.676;2023-05-07T00:24:59;17.10;;;12.85;;
78774;SDS011;68119;43.398;3.676;2023-05-07T00:27:25;17.73;;;13.15;;
78774;SDS011;68119;43.398;3.676;2023-05-07T00:29:51;14.93;;;12.57;;
78774;SDS011;68119;43.398;3.676;2023-05-07T00:32:20;16.55;;;10.95;;
78774;SDS011;68119;43.398;3.676;2023-05-07T00:34:49;16.23;;;12.85;;
78774;SDS011;68119;43.398;3.676;2023-05-07T00:37:18;17.08;;;13.50;;
78774;SDS011;68119;43.398;3.676;2023-05-07T00:39:47;15.98;;;12.48;;
78774;SDS011;68119;43.398;3.676;2023-05-07T00:42:15;16.10;;;11.55;;
78774;SDS011;68119;43.398;3.676;2023-05-07T00:44:42;14.23;;;10.88;;
78774;SDS011;68119;43.398;3.676;2023-05-07T00:47:08;15.65;;;10.32;;
78774;SDS011;68119;43.398;3.676;2023-05-07T00:49:38;15.68;;;10.82;;
78774;SDS011;68119;43.398;3.676;2023-05-07T00:52:09;14.90;;;11.73;;
78774;SDS011;68119;43.398;3.676;2023-05-07T00:54:42;13.52;;;8.30;;
78774;SDS011;68119;43.398;3.676;2023-05-07T00:57:09;9.68;;;7.60;;
78774;SDS011;68119;43.398;3.676;2023-05-07T00:59:36;11.02;;;8.43;;
78774;SDS011;68119;43.398;3.676;2023-05-07T01:02:08;14.75;;;9.27;;
78774;SDS011;68119;43.398;3.676;2023-05-07T01:04:34;57.70;;;50.50;;
78774;SDS011;68119;43.398;3.676;2023-05-07T01:07:00;46.25;;;39.28;;
78774;SDS011;68119;43.398;3.676;2023-05-07T01:09:27;17.80;;;15.90;;
78774;SDS011;68119;43.398;3.676;2023-05-07T01:11:54;11.85;;;8.95;;
78774;SDS011;68119;43.398;3.676;2023-05-07T01:14:22;12.00;;;8.05;;
78774;SDS011;68119;43.398;3.676;2023-05-07T01:16:52;11.05;;;7.97;;
78774;SDS011;68119;43.398;3.676;2023-05-07T01:19:18;12.57;;;7.97;;
78774;SDS011;68119;43.398;3.676;2023-05-07T01:21:47;11.25;;;7.85;;
78774;SDS011;68119;43.398;3.676;2023-05-07T01:24:13;10.63;;;7.97;;
78774;SDS011;68119;43.398;3.676;2023-05-07T01:26:40;13.90;;;8.48;;
78774;SDS011;68119;43.398;3.676;2023-05-07T01:29:06;13.60;;;8.85;;
78774;SDS011;68119;43.398;3.676;2023-05-07T01:31:32;12.02;;;8.80;;
78774;SDS011;68119;43.398;3.676;2023-05-07T01:34:02;13.23;;;9.05;;
78774;SDS011;68119;43.398;3.676;2023-05-07T01:36:29;15.50;;;9.30;;
78774;SDS011;68119;43.398;3.676;2023-05-07T01:38:59;12.88;;;9.27;;
78774;SDS011;68119;43.398;3.676;2023-05-07T01:41:31;12.93;;;10.07;;
78774;SDS011;68119;43.398;3.676;2023-05-07T01:43:57;16.42;;;10.57;;
78774;SDS011;68119;43.398;3.676;2023-05-07T01:46:23;12.32;;;10.32;;
78774;SDS011;68119;43.398;3.676;2023-05-07T01:48:53;13.90;;;10.25;;
78774;SDS011;68119;43.398;3.676;2023-05-07T01:51:25;13.65;;;9.90;;
78774;SDS011;68119;43.398;3.676;2023-05-07T01:53:52;11.98;;;9.70;;
78774;SDS011;68119;43.398;3.676;2023-05-07T01:56:18;14.73;;;9.60;;
78774;SDS011;68119;43.398;3.676;2023-05-07T01:58:48;16.70;;;10.13;;
78774;SDS011;68119;43.398;3.676;2023-05-07T02:01:16;11.90;;;9.40;;
78774;SDS011;68119;43.398;3.676;2023-05-07T02:03:42;14.48;;;9.88;;
78774;SDS011;68119;43.398;3.676;2023-05-07T02:06:12;16.08;;;10.00;;
78774;SDS011;68119;43.398;3.676;2023-05-07T02:08:40;12.75;;;9.15;;
78774;SDS011;68119;43.398;3.676;2023-05-07T02:11:09;12.52;;;9.00;;
78774;SDS011;68119;43.398;3.676;2023-05-07T02:13:38;15.75;;;9.40;;
78774;SDS011;68119;43.398;3.676;2023-05-07T02:16:10;14.63;;;9.80;;
78774;SDS011;68119;43.398;3.676;2023-05-07T02:18:42;11.80;;;9.05;;
78774;SDS011;68119;43.398;3.676;2023-05-07T02:21:08;10.95;;;9.00;;
78774;SDS011;68119;43.398;3.676;2023-05-07T02:23:37;11.00;;;9.10;;
78774;SDS011;68119;43.398;3.676;2023-05-07T02:26:03;12.60;;;9.25;;
78774;SDS011;68119;43.398;3.676;2023-05-07T02:28:29;10.90;;;9.68;;
78774;SDS011;68119;43.398;3.676;2023-05-07T02:30:59;11.13;;;8.93;;
78774;SDS011;68119;43.398;3.676;2023-05-07T02:33:25;12.48;;;8.95;;
78774;SDS011;68119;43.398;3.676;2023-05-07T02:35:52;13.60;;;10.07;;
78774;SDS011;68119;43.398;3.676;2023-05-07T02:38:23;10.73;;;9.55;;
78774;SDS011;68119;43.398;3.676;2023-05-07T02:40:49;12.50;;;9.35;;
78774;SDS011;68119;43.398;3.676;2023-05-07T02:43:18;13.93;;;9.23;;
78774;SDS011;68119;43.398;3.676;2023-05-07T02:45:49;13.27;;;9.15;;
78774;SDS011;68119;43.398;3.676;2023-05-07T02:48:25;13.75;;;9.82;;
78774;SDS011;68119;43.398;3.676;2023-05-07T02:50:57;11.18;;;9.35;;
78774;SDS011;68119;43.398;3.676;2023-05-07T02:53:28;11.02;;;9.00;;
78774;SDS011;68119;43.398;3.676;2023-05-07T02:55:57;11.80;;;8.82;;
78774;SDS011;68119;43.398;3.676;2023-05-07T02:58:24;9.52;;;8.40;;
78774;SDS011;68119;43.398;3.676;2023-05-07T03:00:50;14.90;;;8.45;;
78774;SDS011;68119;43.398;3.676;2023-05-07T03:03:16;12.00;;;8.10;;
78774;SDS011;68119;43.398;3.676;2023-05-07T03:05:45;11.55;;;8.60;;
78774;SDS011;68119;43.398;3.676;2023-05-07T03:08:13;11.85;;;8.57;;
78774;SDS011;68119;43.398;3.676;2023-05-07T03:10:40;12.90;;;8.50;;
78774;SDS011;68119;43.398;3.676;2023-05-07T03:13:06;10.75;;;8.48;;
78774;SDS011;68119;43.398;3.676;2023-05-07T03:15:32;12.05;;;8.48;;
78774;SDS011;68119;43.398;3.676;2023-05-07T03:18:01;11.68;;;9.15;;
78774;SDS011;68119;43.398;3.676;2023-05-07T03:20:27;11.88;;;9.20;;
78774;SDS011;68119;43.398;3.676;2023-05-07T03:22:53;11.13;;;9.05;;
78774;SDS011;68119;43.398;3.676;2023-05-07T03:25:22;14.32;;;9.38;;
78774;SDS011;68119;43.398;3.676;2023-05-07T03:27:54;11.63;;;8.52;;
78774;SDS011;68119;43.398;3.676;2023-05-07T03:30:20;13.27;;;9.57;;
78774;SDS011;68119;43.398;3.676;2023-05-07T03:32:46;13.50;;;9.00;;
78774;SDS011;68119;43.398;3.676;2023-05-07T03:35:13;11.55;;;8.70;;
78774;SDS011;68119;43.398;3.676;2023-05-07T03:37:47;11.40;;;8.82;;
78774;SDS011;68119;43.398;3.676;2023-05-07T03:40:14;13.20;;;9.18;;
78774;SDS011;68119;43.398;3.676;2023-05-07T03:42:40;12.52;;;9.35;;
78774;SDS011;68119;43.398;3.676;2023-05-07T03:45:09;13.50;;;9.07;;
78774;SDS011;68119;43.398;3.676;2023-05-07T03:47:35;14.63;;;9.32;;
78774;SDS011;68119;43.398;3.676;2023-05-07T03:50:04;12.18;;;9.02;;
78774;SDS011;68119;43.398;3.676;2023-05-07T03:52:30;12.73;;;9.90;;
78774;SDS011;68119;43.398;3.676;2023-05-07T03:54:56;15.27;;;9.38;;
78774;SDS011;68119;43.398;3.676;2023-05-07T03:57:28;12.88;;;9.65;;
78774;SDS011;68119;43.398;3.676;2023-05-07T03:59:57;11.88;;;8.57;;
78774;SDS011;68119;43.398;3.676;2023-05-07T04:02:23;10.60;;;8.80;;
78774;SDS011;68119;43.398;3.676;2023-05-07T04:04:49;11.80;;;9.07;;
78774;SDS011;68119;43.398;3.676;2023-05-07T04:07:16;12.88;;;9.40;;
78774;SDS011;68119;43.398;3.676;2023-05-07T04:09:45;14.30;;;9.32;;
78774;SDS011;68119;43.398;3.676;2023-05-07T04:12:14;13.30;;;8.98;;
78774;SDS011;68119;43.398;3.676;2023-05-07T04:14:40;14.13;;;9.10;;
78774;SDS011;68119;43.398;3.676;2023-05-07T04:17:06;18.60;;;9.65;;
78774;SDS011;68119;43.398;3.676;2023-05-07T04:19:36;12.43;;;10.35;;
78774;SDS011;68119;43.398;3.676;2023-05-07T04:22:10;15.73;;;10.45;;
78774;SDS011;68119;43.398;3.676;2023-05-07T04:24:36;13.50;;;10.73;;
78774;SDS011;68119;43.398;3.676;2023-05-07T04:27:02;13.32;;;10.32;;
78774;SDS011;68119;43.398;3.676;2023-05-07T04:29:29;14.82;;;10.05;;
78774;SDS011;68119;43.398;3.676;2023-05-07T04:32:01;12.98;;;10.48;;
78774;SDS011;68119;43.398;3.676;2023-05-07T04:34:27;13.13;;;9.82;;
78774;SDS011;68119;43.398;3.676;2023-05-07T04:36:53;15.18;;;10.57;;
78774;SDS011;68119;43.398;3.676;2023-05-07T04:39:24;12.30;;;10.25;;
78774;SDS011;68119;43.398;3.676;2023-05-07T04:41:51;15.27;;;10.00;;
78774;SDS011;68119;43.398;3.676;2023-05-07T04:44:17;12.05;;;9.32;;
78774;SDS011;68119;43.398;3.676;2023-05-07T04:46:43;10.75;;;9.45;;
78774;SDS011;68119;43.398;3.676;2023-05-07T04:49:09;12.55;;;9.43;;
78774;SDS011;68119;43.398;3.676;2023-05-07T04:51:36;12.93;;;10.35;;
78774;SDS011;68119;43.398;3.676;2023-05-07T04:54:06;15.15;;;10.50;;
78774;SDS011;68119;43.398;3.676;2023-05-07T04:56:32;15.93;;;9.52;;
78774;SDS011;68119;43.398;3.676;2023-05-07T04:58:58;12.32;;;9.98;;
78774;SDS011;68119;43.398;3.676;2023-05-07T05:01:24;12.50;;;9.95;;
78774;SDS011;68119;43.398;3.676;2023-05-07T05:03:54;13.15;;;9.88;;
78774;SDS011;68119;43.398;3.676;2023-05-07T05:06:25;12.55;;;9.95;;
78774;SDS011;68119;43.398;3.676;2023-05-07T05:08:51;12.88;;;9.98;;
78774;SDS011;68119;43.398;3.676;2023-05-07T05:11:17;11.93;;;9.75;;
78774;SDS011;68119;43.398;3.676;2023-05-07T05:13:46;15.00;;;9.32;;
78774;SDS011;68119;43.398;3.676;2023-05-07T05:16:20;16.90;;;9.27;;
78774;SDS011;68119;43.398;3.676;2023-05-07T05:18:46;13.88;;;9.48;;
78774;SDS011;68119;43.398;3.676;2023-05-07T05:21:17;12.40;;;9.00;;
78774;SDS011;68119;43.398;3.676;2023-05-07T05:23:43;14.65;;;9.25;;
78774;SDS011;68119;43.398;3.676;2023-05-07T05:26:12;10.10;;;8.70;;
78774;SDS011;68119;43.398;3.676;2023-05-07T05:28:38;10.60;;;7.70;;
78774;SDS011;68119;43.398;3.676;2023-05-07T05:31:07;10.18;;;7.13;;
78774;SDS011;68119;43.398;3.676;2023-05-07T05:33:33;12.48;;;6.90;;
78774;SDS011;68119;43.398;3.676;2023-05-07T05:36:17;8.40;;;5.43;;
78774;SDS011;68119;43.398;3.676;2023-05-07T05:38:43;6.82;;;4.97;;
78774;SDS011;68119;43.398;3.676;2023-05-07T05:41:12;5.75;;;4.22;;
78774;SDS011;68119;43.398;3.676;2023-05-07T05:43:38;5.72;;;4.53;;
78774;SDS011;68119;43.398;3.676;2023-05-07T05:46:07;8.88;;;4.38;;
78774;SDS011;68119;43.398;3.676;2023-05-07T05:48:39;4.82;;;4.07;;
78774;SDS011;68119;43.398;3.676;2023-05-07T05:51:08;6.30;;;4.35;;
78774;SDS011;68119;43.398;3.676;2023-05-07T05:53:34;6.88;;;3.90;;
78774;SDS011;68119;43.398;3.676;2023-05-07T05:56:03;5.68;;;3.95;;
78774;SDS011;68119;43.398;3.676;2023-05-07T05:58:29;10.95;;;3.97;;
78774;SDS011;68119;43.398;3.676;2023-05-07T06:00:56;5.57;;;3.80;;
78774;SDS011;68119;43.398;3.676;2023-05-07T06:03:33;5.68;;;3.60;;
78774;SDS011;68119;43.398;3.676;2023-05-07T06:05:59;5.60;;;3.67;;
78774;SDS011;68119;43.398;3.676;2023-05-07T06:08:28;6.35;;;3.75;;
78774;SDS011;68119;43.398;3.676;2023-05-07T06:10:55;5.97;;;3.38;;
78774;SDS011;68119;43.398;3.676;2023-05-07T06:13:23;5.90;;;3.30;;
78774;SDS011;68119;43.398;3.676;2023-05-07T06:15:50;5.65;;;3.40;;
78774;SDS011;68119;43.398;3.676;2023-05-07T06:18:16;4.25;;;3.10;;
78774;SDS011;68119;43.398;3.676;2023-05-07T06:20:42;3.50;;;2.72;;
78774;SDS011;68119;43.398;3.676;2023-05-07T06:23:08;5.32;;;3.20;;
78774;SDS011;68119;43.398;3.676;2023-05-07T06:25:36;4.25;;;2.80;;
78774;SDS011;68119;43.398;3.676;2023-05-07T06:28:05;5.18;;;2.72;;
78774;SDS011;68119;43.398;3.676;2023-05-07T06:30:33;3.97;;;2.83;;
78774;SDS011;68119;43.398;3.676;2023-05-07T06:32:59;4.65;;;2.97;;
78774;SDS011;68119;43.398;3.676;2023-05-07T06:35:25;5.72;;;2.95;;
78774;SDS011;68119;43.398;3.676;2023-05-07T06:37:55;3.75;;;2.67;;
78774;SDS011;68119;43.398;3.676;2023-05-07T06:40:21;3.08;;;2.30;;
78774;SDS011;68119;43.398;3.676;2023-05-07T06:42:47;4.78;;;2.78;;
78774;SDS011;68119;43.398;3.676;2023-05-07T06:45:13;4.18;;;2.33;;
78774;SDS011;68119;43.398;3.676;2023-05-07T06:47:39;4.22;;;2.55;;
78774;SDS011;68119;43.398;3.676;2023-05-07T06:50:08;4.25;;;2.55;;
78774;SDS011;68119;43.398;3.676;2023-05-07T06:52:37;4.05;;;2.60;;
78774;SDS011;68119;43.398;3.676;2023-05-07T06:55:06;3.95;;;2.47;;
78774;SDS011;68119;43.398;3.676;2023-05-07T06:57:35;4.70;;;2.53;;
78774;SDS011;68119;43.398;3.676;2023-05-07T07:00:04;3.78;;;2.50;;
78774;SDS011;68119;43.398;3.676;2023-05-07T07:05:04;4.35;;;2.47;;
78774;SDS011;68119;43.398;3.676;2023-05-07T07:07:30;3.30;;;2.45;;
78774;SDS011;68119;43.398;3.676;2023-05-07T07:09:58;6.32;;;2.40;;
78774;SDS011;68119;43.398;3.676;2023-05-07T07:12:27;4.25;;;2.50;;
78774;SDS011;68119;43.398;3.676;2023-05-07T07:14:54;4.68;;;2.92;;
78774;SDS011;68119;43.398;3.676;2023-05-07T07:17:21;6.22;;;3.30;;
78774;SDS011;68119;43.398;3.676;2023-05-07T07:19:50;4.93;;;2.90;;
78774;SDS011;68119;43.398;3.676;2023-05-07T07:22:16;6.70;;;3.10;;
78774;SDS011;68119;43.398;3.676;2023-05-07T07:24:42;3.72;;;2.30;;
78774;SDS011;68119;43.398;3.676;2023-05-07T07:27:08;3.50;;;2.13;;
78774;SDS011;68119;43.398;3.676;2023-05-07T07:29:35;4.70;;;2.50;;
78774;SDS011;68119;43.398;3.676;2023-05-07T07:32:03;3.03;;;2.30;;
78774;SDS011;68119;43.398;3.676;2023-05-07T07:34:32;3.78;;;2.20;;
78774;SDS011;68119;43.398;3.676;2023-05-07T07:36:58;4.63;;;1.88;;
78774;SDS011;68119;43.398;3.676;2023-05-07T07:39:30;3.42;;;1.85;;
78774;SDS011;68119;43.398;3.676;2023-05-07T07:41:59;4.45;;;2.00;;
78774;SDS011;68119;43.398;3.676;2023-05-07T07:44:27;2.45;;;1.55;;
78774;SDS011;68119;43.398;3.676;2023-05-07T07:46:53;3.40;;;1.73;;
78774;SDS011;68119;43.398;3.676;2023-05-07T07:49:22;5.60;;;2.03;;
78774;SDS011;68119;43.398;3.676;2023-05-07T07:51:49;3.03;;;1.85;;
78774;SDS011;68119;43.398;3.676;2023-05-07T07:54:16;2.33;;;1.58;;
78774;SDS011;68119;43.398;3.676;2023-05-07T07:56:45;3.15;;;1.70;;
78774;SDS011;68119;43.398;3.676;2023-05-07T07:59:11;2.55;;;1.90;;
78774;SDS011;68119;43.398;3.676;2023-05-07T08:01:39;5.07;;;1.90;;
78774;SDS011;68119;43.398;3.676;2023-05-07T08:04:08;3.72;;;1.80;;
78774;SDS011;68119;43.398;3.676;2023-05-07T08:06:42;3.95;;;1.80;;
78774;SDS011;68119;43.398;3.676;2023-05-07T08:09:08;4.65;;;1.90;;
78774;SDS011;68119;43.398;3.676;2023-05-07T08:11:34;2.45;;;1.70;;
78774;SDS011;68119;43.398;3.676;2023-05-07T08:14:03;4.82;;;1.98;;
78774;SDS011;68119;43.398;3.676;2023-05-07T08:16:29;4.22;;;1.90;;
78774;SDS011;68119;43.398;3.676;2023-05-07T08:18:59;3.50;;;1.90;;
78774;SDS011;68119;43.398;3.676;2023-05-07T08:21:28;2.40;;;1.73;;
78774;SDS011;68119;43.398;3.676;2023-05-07T08:23:55;2.97;;;1.65;;
78774;SDS011;68119;43.398;3.676;2023-05-07T08:26:24;2.65;;;1.40;;
78774;SDS011;68119;43.398;3.676;2023-05-07T08:28:51;2.17;;;1.60;;
78774;SDS011;68119;43.398;3.676;2023-05-07T08:31:20;2.20;;;1.70;;
78774;SDS011;68119;43.398;3.676;2023-05-07T08:33:46;3.25;;;1.50;;
78774;SDS011;68119;43.398;3.676;2023-05-07T08:36:15;2.00;;;1.58;;
78774;SDS011;68119;43.398;3.676;2023-05-07T08:38:41;2.33;;;1.60;;
78774;SDS011;68119;43.398;3.676;2023-05-07T08:41:13;1.70;;;1.60;;
78774;SDS011;68119;43.398;3.676;2023-05-07T08:43:41;2.47;;;1.60;;
78774;SDS011;68119;43.398;3.676;2023-05-07T08:46:09;2.08;;;1.70;;
78774;SDS011;68119;43.398;3.676;2023-05-07T08:48:36;3.15;;;1.88;;
78774;SDS011;68119;43.398;3.676;2023-05-07T08:51:04;3.55;;;1.80;;
78774;SDS011;68119;43.398;3.676;2023-05-07T08:53:33;2.40;;;1.50;;
78774;SDS011;68119;43.398;3.676;2023-05-07T08:55:59;1.92;;;1.70;;
78774;SDS011;68119;43.398;3.676;2023-05-07T08:58:26;1.30;;;1.20;;
78774;SDS011;68119;43.398;3.676;2023-05-07T09:00:55;2.25;;;1.40;;
78774;SDS011;68119;43.398;3.676;2023-05-07T09:03:21;2.33;;;1.42;;
78774;SDS011;68119;43.398;3.676;2023-05-07T09:05:53;3.05;;;1.45;;
78774;SDS011;68119;43.398;3.676;2023-05-07T09:08:26;4.25;;;1.77;;
78774;SDS011;68119;43.398;3.676;2023-05-07T09:10:55;4.05;;;1.33;;
78774;SDS011;68119;43.398;3.676;2023-05-07T09:13:23;2.22;;;1.30;;
78774;SDS011;68119;43.398;3.676;2023-05-07T09:15:49;2.85;;;1.80;;
78774;SDS011;68119;43.398;3.676;2023-05-07T09:18:18;1.75;;;1.27;;
78774;SDS011;68119;43.398;3.676;2023-05-07T09:20:47;2.55;;;1.65;;
78774;SDS011;68119;43.398;3.676;2023-05-07T09:23:16;1.98;;;1.60;;
78774;SDS011;68119;43.398;3.676;2023-05-07T09:25:42;3.20;;;1.70;;
78774;SDS011;68119;43.398;3.676;2023-05-07T09:28:09;1.48;;;1.30;;
78774;SDS011;68119;43.398;3.676;2023-05-07T09:30:35;2.15;;;1.50;;
78774;SDS011;68119;43.398;3.676;2023-05-07T09:33:02;1.85;;;1.50;;
78774;SDS011;68119;43.398;3.676;2023-05-07T09:35:29;3.30;;;1.40;;
78774;SDS011;68119;43.398;3.676;2023-05-07T09:38:00;3.30;;;1.98;;
78774;SDS011;68119;43.398;3.676;2023-05-07T09:40:27;3.40;;;1.50;;
78774;SDS011;68119;43.398;3.676;2023-05-07T09:42:54;1.70;;;1.50;;
78774;SDS011;68119;43.398;3.676;2023-05-07T09:45:27;1.90;;;1.45;;
78774;SDS011;68119;43.398;3.676;2023-05-07T09:47:56;1.92;;;1.73;;
78774;SDS011;68119;43.398;3.676;2023-05-07T09:50:31;2.28;;;1.60;;
78774;SDS011;68119;43.398;3.676;2023-05-07T09:52:58;2.65;;;1.55;;
78774;SDS011;68119;43.398;3.676;2023-05-07T09:55:24;1.85;;;1.40;;
78774;SDS011;68119;43.398;3.676;2023-05-07T09:57:51;3.70;;;1.40;;
78774;SDS011;68119;43.398;3.676;2023-05-07T10:00:21;1.60;;;1.30;;
78774;SDS011;68119;43.398;3.676;2023-05-07T10:02:48;2.75;;;1.38;;
78774;SDS011;68119;43.398;3.676;2023-05-07T10:05:17;3.90;;;1.85;;
78774;SDS011;68119;43.398;3.676;2023-05-07T10:07:44;4.53;;;2.25;;
78774;SDS011;68119;43.398;3.676;2023-05-07T10:10:13;3.40;;;2.35;;
78774;SDS011;68119;43.398;3.676;2023-05-07T10:12:41;3.13;;;2.50;;
78774;SDS011;68119;43.398;3.676;2023-05-07T10:15:13;1.90;;;1.45;;
78774;SDS011;68119;43.398;3.676;2023-05-07T10:17:42;2.53;;;1.50;;
78774;SDS011;68119;43.398;3.676;2023-05-07T10:20:10;1.67;;;1.30;;
78774;SDS011;68119;43.398;3.676;2023-05-07T10:22:43;1.10;;;0.98;;
78774;SDS011;68119;43.398;3.676;2023-05-07T10:25:14;2.53;;;1.50;;
78774;SDS011;68119;43.398;3.676;2023-05-07T10:27:43;1.52;;;1.40;;
78774;SDS011;68119;43.398;3.676;2023-05-07T10:30:22;1.98;;;1.27;;
78774;SDS011;68119;43.398;3.676;2023-05-07T10:32:52;1.80;;;1.30;;
78774;SDS011;68119;43.398;3.676;2023-05-07T10:35:24;1.25;;;1.23;;
78774;SDS011;68119;43.398;3.676;2023-05-07T10:37:52;4.25;;;1.70;;
78774;SDS011;68119;43.398;3.676;2023-05-07T10:40:20;1.70;;;1.20;;
78774;SDS011;68119;43.398;3.676;2023-05-07T10:42:56;1.40;;;1.20;;
78774;SDS011;68119;43.398;3.676;2023-05-07T10:45:24;5.55;;;1.20;;
78774;SDS011;68119;43.398;3.676;2023-05-07T10:48:14;5.47;;;1.50;;
78774;SDS011;68119;43.398;3.676;2023-05-07T10:50:43;2.05;;;1.30;;
78774;SDS011;68119;43.398;3.676;2023-05-07T10:55:46;3.20;;;1.33;;
78774;SDS011;68119;43.398;3.676;2023-05-07T11:00:50;1.27;;;1.10;;
78774;SDS011;68119;43.398;3.676;2023-05-07T11:03:17;2.80;;;1.50;;
78774;SDS011;68119;43.398;3.676;2023-05-07T11:05:43;2.08;;;1.27;;
78774;SDS011;68119;43.398;3.676;2023-05-07T11:08:12;1.27;;;1.05;;
78774;SDS011;68119;43.398;3.676;2023-05-07T11:10:56;1.75;;;1.60;;
78774;SDS011;68119;43.398;3.676;2023-05-07T11:16:21;5.13;;;1.85;;
78774;SDS011;68119;43.398;3.676;2023-05-07T11:18:55;2.25;;;1.27;;
78774;SDS011;68119;43.398;3.676;2023-05-07T11:21:35;2.30;;;1.38;;
78774;SDS011;68119;43.398;3.676;2023-05-07T11:24:01;2.78;;;1.45;;
78774;SDS011;68119;43.398;3.676;2023-05-07T11:26:31;5.63;;;1.60;;
78774;SDS011;68119;43.398;3.676;2023-05-07T11:29:25;2.63;;;1.42;;
78774;SDS011;68119;43.398;3.676;2023-05-07T11:31:54;1.75;;;1.10;;
78774;SDS011;68119;43.398;3.676;2023-05-07T11:34:28;4.20;;;1.30;;
78774;SDS011;68119;43.398;3.676;2023-05-07T11:36:57;2.22;;;1.63;;
78774;SDS011;68119;43.398;3.676;2023-05-07T11:39:28;4.03;;;1.38;;
78774;SDS011;68119;43.398;3.676;2023-05-07T11:41:55;2.28;;;1.20;;
78774;SDS011;68119;43.398;3.676;2023-05-07T11:44:23;1.98;;;1.42;;
78774;SDS011;68119;43.398;3.676;2023-05-07T11:46:49;3.08;;;1.42;;
78774;SDS011;68119;43.398;3.676;2023-05-07T11:49:18;3.88;;;1.45;;
78774;SDS011;68119;43.398;3.676;2023-05-07T11:51:44;3.33;;;1.60;;
78774;SDS011;68119;43.398;3.676;2023-05-07T11:54:11;2.67;;;1.30;;
78774;SDS011;68119;43.398;3.676;2023-05-07T11:56:40;2.50;;;1.50;;
78774;SDS011;68119;43.398;3.676;2023-05-07T11:59:07;2.20;;;1.35;;
78774;SDS011;68119;43.398;3.676;2023-05-07T12:01:35;3.75;;;1.70;;
78774;SDS011;68119;43.398;3.676;2023-05-07T12:04:05;3.97;;;1.50;;
78774;SDS011;68119;43.398;3.676;2023-05-07T12:06:35;3.13;;;1.50;;
78774;SDS011;68119;43.398;3.676;2023-05-07T12:09:07;3.15;;;1.50;;
78774;SDS011;68119;43.398;3.676;2023-05-07T12:11:39;3.33;;;1.40;;
78774;SDS011;68119;43.398;3.676;2023-05-07T12:14:08;2.78;;;1.52;;
78774;SDS011;68119;43.398;3.676;2023-05-07T12:16:34;2.72;;;1.45;;
78774;SDS011;68119;43.398;3.676;2023-05-07T12:19:03;3.88;;;1.60;;
78774;SDS011;68119;43.398;3.676;2023-05-07T12:21:32;2.50;;;1.40;;
78774;SDS011;68119;43.398;3.676;2023-05-07T12:23:59;4.72;;;2.17;;
78774;SDS011;68119;43.398;3.676;2023-05-07T12:26:28;3.05;;;1.90;;
78774;SDS011;68119;43.398;3.676;2023-05-07T12:28:54;3.83;;;1.42;;
78774;SDS011;68119;43.398;3.676;2023-05-07T12:31:23;2.28;;;1.60;;
78774;SDS011;68119;43.398;3.676;2023-05-07T12:33:51;1.55;;;1.45;;
78774;SDS011;68119;43.398;3.676;2023-05-07T12:36:17;3.08;;;1.63;;
78774;SDS011;68119;43.398;3.676;2023-05-07T12:38:43;4.38;;;1.30;;
78774;SDS011;68119;43.398;3.676;2023-05-07T12:41:10;4.63;;;1.50;;
78774;SDS011;68119;43.398;3.676;2023-05-07T12:43:39;4.07;;;1.60;;
78774;SDS011;68119;43.398;3.676;2023-05-07T12:46:09;2.58;;;1.20;;
78774;SDS011;68119;43.398;3.676;2023-05-07T12:48:38;2.65;;;1.33;;
78774;SDS011;68119;43.398;3.676;2023-05-07T12:51:11;3.75;;;1.42;;
78774;SDS011;68119;43.398;3.676;2023-05-07T12:53:42;2.67;;;1.40;;
78774;SDS011;68119;43.398;3.676;2023-05-07T12:56:11;2.97;;;1.48;;
78774;SDS011;68119;43.398;3.676;2023-05-07T12:58:37;3.50;;;1.30;;
78774;SDS011;68119;43.398;3.676;2023-05-07T13:01:07;2.67;;;1.50;;
78774;SDS011;68119;43.398;3.676;2023-05-07T13:03:35;2.75;;;1.30;;
78774;SDS011;68119;43.398;3.676;2023-05-07T13:06:05;2.92;;;1.58;;
78774;SDS011;68119;43.398;3.676;2023-05-07T13:08:32;2.75;;;1.40;;
78774;SDS011;68119;43.398;3.676;2023-05-07T13:10:59;2.75;;;1.30;;
78774;SDS011;68119;43.398;3.676;2023-05-07T13:13:32;1.80;;;1.27;;
78774;SDS011;68119;43.398;3.676;2023-05-07T13:15:58;3.05;;;1.50;;
78774;SDS011;68119;43.398;3.676;2023-05-07T13:18:27;2.50;;;1.30;;
78774;SDS011;68119;43.398;3.676;2023-05-07T13:20:53;2.78;;;1.30;;
78774;SDS011;68119;43.398;3.676;2023-05-07T13:23:20;3.20;;;1.60;;
78774;SDS011;68119;43.398;3.676;2023-05-07T13:25:46;3.13;;;1.35;;
78774;SDS011;68119;43.398;3.676;2023-05-07T13:28:18;1.67;;;1.42;;
78774;SDS011;68119;43.398;3.676;2023-05-07T13:30:48;2.70;;;1.67;;
78774;SDS011;68119;43.398;3.676;2023-05-07T13:33:14;4.83;;;1.63;;
78774;SDS011;68119;43.398;3.676;2023-05-07T13:35:41;3.25;;;1.20;;
78774;SDS011;68119;43.398;3.676;2023-05-07T13:38:10;1.88;;;1.30;;
78774;SDS011;68119;43.398;3.676;2023-05-07T13:40:36;3.30;;;1.40;;
78774;SDS011;68119;43.398;3.676;2023-05-07T13:43:05;2.47;;;1.27;;
78774;SDS011;68119;43.398;3.676;2023-05-07T13:45:33;4.40;;;1.60;;
78774;SDS011;68119;43.398;3.676;2023-05-07T13:48:00;2.35;;;1.42;;
78774;SDS011;68119;43.398;3.676;2023-05-07T13:50:29;3.20;;;1.38;;
78774;SDS011;68119;43.398;3.676;2023-05-07T13:52:58;2.97;;;1.42;;
78774;SDS011;68119;43.398;3.676;2023-05-07T13:55:28;3.55;;;1.35;;
78774;SDS011;68119;43.398;3.676;2023-05-07T13:57:56;2.65;;;1.10;;
78774;SDS011;68119;43.398;3.676;2023-05-07T14:00:25;2.45;;;1.25;;
78774;SDS011;68119;43.398;3.676;2023-05-07T14:02:56;3.15;;;1.45;;
78774;SDS011;68119;43.398;3.676;2023-05-07T14:05:27;3.38;;;1.50;;
78774;SDS011;68119;43.398;3.676;2023-05-07T14:07:54;3.28;;;1.75;;
78774;SDS011;68119;43.398;3.676;2023-05-07T14:10:22;2.95;;;1.70;;
78774;SDS011;68119;43.398;3.676;2023-05-07T14:12:51;1.70;;;1.13;;
78774;SDS011;68119;43.398;3.676;2023-05-07T14:15:20;3.45;;;1.35;;
78774;SDS011;68119;43.398;3.676;2023-05-07T14:17:49;2.70;;;1.35;;
78774;SDS011;68119;43.398;3.676;2023-05-07T14:20:15;3.07;;;1.60;;
78774;SDS011;68119;43.398;3.676;2023-05-07T14:22:41;2.55;;;1.45;;
78774;SDS011;68119;43.398;3.676;2023-05-07T14:25:13;6.70;;;1.63;;
78774;SDS011;68119;43.398;3.676;2023-05-07T14:27:41;3.38;;;1.50;;
78774;SDS011;68119;43.398;3.676;2023-05-07T14:30:10;2.38;;;1.58;;
78774;SDS011;68119;43.398;3.676;2023-05-07T14:32:39;3.97;;;1.60;;
78774;SDS011;68119;43.398;3.676;2023-05-07T14:35:08;1.98;;;1.10;;
78774;SDS011;68119;43.398;3.676;2023-05-07T14:37:34;5.20;;;1.60;;
78774;SDS011;68119;43.398;3.676;2023-05-07T14:40:03;4.43;;;1.67;;
78774;SDS011;68119;43.398;3.676;2023-05-07T14:42:29;3.95;;;1.60;;
78774;SDS011;68119;43.398;3.676;2023-05-07T14:44:58;3.78;;;1.50;;
78774;SDS011;68119;43.398;3.676;2023-05-07T14:47:29;5.07;;;1.90;;
78774;SDS011;68119;43.398;3.676;2023-05-07T14:49:56;3.83;;;1.55;;
78774;SDS011;68119;43.398;3.676;2023-05-07T14:52:26;2.63;;;1.77;;
78774;SDS011;68119;43.398;3.676;2023-05-07T14:54:55;5.57;;;2.38;;
78774;SDS011;68119;43.398;3.676;2023-05-07T14:57:21;4.00;;;1.95;;